< < Back
Terminal Aerodrome Forecast


Current Version              Previous Versions:   1  2  3  4  5  6  7  8  9  

Terminal Aerodrome Forecast

936
FTUS42 KCAE 310500
TAFCAE
TAF
KCAE 310538Z 3106/0106 VRB03KT P6SM SKC
     FM312000 VRB05KT P6SM FEW250=

Latest METAR

786
SAUS80 KWBC 311600
MTRCAE
METAR KCAE 311556Z 00000KT 10SM SCT180 06/M09 A3041 RMK AO2 SLP298
T00611089


USA.gov is the U.S. government's official web portal to all federal, state and local government web resources and services.